Time;durP1;ratioP1;P1;durP2;ratioP2;P2;SDS_P1;SDS_P2;PMS_P1;PMS_P2;Temp;Humidity;BMP_temperature;BMP_pressure;BME280_temperature;BME280_humidity;BME280_pressure;Samples;Min_cycle;Max_cycle;Signal;HPM_P1;HPM_P2
2022/10/08 00:01:10;;;;;;;;;;;;;;;20.06;67.59;97788.78;596223;238;62849;-72
2022/10/08 00:03:40;;;;;;;;;;;;;;;20.06;68.25;97785.31;595783;238;64836;-72
2022/10/08 00:06:08;;;;;;;;;;;;;;;20.05;68.48;97784.52;596114;238;64811;-72
2022/10/08 00:08:37;;;;;;;;;;;;;;;20.05;68.76;97779.17;596228;238;65159;-73
2022/10/08 00:11:06;;;;;;;;;;;;;;;20.06;68.97;97774.64;596287;238;64762;-72
2022/10/08 00:13:41;;;;;;;;;;;;;;;20.04;68.23;97771.41;596225;237;64787;-72
2022/10/08 00:16:29;;;;;;;;;;;;;;;20.04;68.51;97768.73;596244;238;65199;-72
2022/10/08 00:19:01;;;;;;;;;;;;;;;20.04;68.74;97771.41;596210;238;67966;-72
2022/10/08 00:21:30;;;;;;;;;;;;;;;20.03;68.79;97767.94;596237;238;65742;-71
2022/10/08 00:23:58;;;;;;;;;;;;;;;20.04;69.16;97768.73;596218;238;64872;-72
2022/10/08 00:26:26;;;;;;;;;;;;;;;20.02;67.94;97758.30;596013;238;67074;-72
2022/10/08 00:28:55;;;;;;;;;;;;;;;20.03;68.60;97759.13;596303;235;64823;-71
2022/10/08 00:31:24;;;;;;;;;;;;;;;20.02;67.42;97763.63;596267;238;64871;-72
2022/10/08 00:33:53;;;;;;;;;;;;;;;20.02;67.80;97763.63;596094;238;67314;-72
2022/10/08 00:36:22;;;;;;;;;;;;;;;20.03;68.71;97759.92;596272;238;64764;-71
2022/10/08 00:38:50;;;;;;;;;;;;;;;20.02;68.69;97752.16;596253;238;64937;-71
2022/10/08 00:41:20;;;;;;;;;;;;;;;20.02;68.70;97752.96;595241;238;65898;-72
2022/10/08 00:43:52;;;;;;;;;;;;;;;20.02;68.72;97746.82;592926;239;65127;-72
2022/10/08 00:46:30;;;;;;;;;;;;;;;20.02;68.80;97739.63;593146;239;62972;-72
2022/10/08 00:49:02;;;;;;;;;;;;;;;20.01;69.05;97748.69;593149;239;67086;-72
2022/10/08 00:51:31;;;;;;;;;;;;;;;20.01;68.70;97746.02;593151;239;65736;-72
2022/10/08 00:54:00;;;;;;;;;;;;;;;20.02;69.02;97746.82;593135;239;66013;-72
2022/10/08 00:56:30;;;;;;;;;;;;;;;20.02;69.09;97733.48;593195;239;64945;-72
2022/10/08 00:58:57;;;;;;;;;;;;;;;20.00;68.55;97739.08;593158;239;65647;-72
2022/10/08 01:01:24;;;;;;;;;;;;;;;20.02;69.38;97736.95;593177;239;62849;-72
2022/10/08 01:03:52;;;;;;;;;;;;;;;20.01;69.42;97734.55;593146;239;64241;-72
2022/10/08 01:06:30;;;;;;;;;;;;;;;20.01;69.47;97730.02;593184;239;67655;-72
2022/10/08 01:09:14;;;;;;;;;;;;;;;20.00;69.40;97727.58;593198;239;62949;-71
2022/10/08 01:11:46;;;;;;;;;;;;;;;20.00;70.42;97731.08;592460;239;67989;-71
2022/10/08 01:14:32;;;;;;;;;;;;;;;19.99;69.50;97728.64;593100;239;67666;-72
2022/10/08 01:17:05;;;;;;;;;;;;;;;20.00;69.68;97732.91;593174;239;65038;-71
2022/10/08 01:19:34;;;;;;;;;;;;;;;20.00;70.12;97727.58;593160;239;67500;-71
2022/10/08 01:22:20;;;;;;;;;;;;;;;19.98;69.47;97719.03;592890;239;66645;-71
2022/10/08 01:27:49;;;;;;;;;;;;;;;19.99;69.64;97726.78;593187;239;68167;-71
2022/10/08 01:30:17;;;;;;;;;;;;;;;19.98;69.66;97722.51;593194;239;67057;-71
2022/10/08 01:32:52;;;;;;;;;;;;;;;19.97;69.65;97718.23;593142;239;65125;-71
2022/10/08 01:35:23;;;;;;;;;;;;;;;19.99;69.08;97723.31;593133;239;67039;-72
2022/10/08 01:37:54;;;;;;;;;;;;;;;19.97;70.10;97715.56;593134;239;65000;-71
2022/10/08 01:40:22;;;;;;;;;;;;;;;19.99;70.42;97715.30;593103;239;63035;-72
2022/10/08 01:42:51;;;;;;;;;;;;;;;19.98;70.46;97711.03;593107;238;67177;-71
2022/10/08 01:45:20;;;;;;;;;;;;;;;19.96;69.72;97712.06;593199;239;64800;-71
2022/10/08 01:47:49;;;;;;;;;;;;;;;19.96;69.58;97701.39;593138;239;63029;-71
2022/10/08 01:50:19;;;;;;;;;;;;;;;19.96;69.27;97705.94;593159;239;67293;-71
2022/10/08 01:52:48;;;;;;;;;;;;;;;19.96;69.06;97703.27;593166;239;65478;-71
2022/10/08 01:55:16;;;;;;;;;;;;;;;19.96;69.95;97693.39;593115;238;62798;-71
2022/10/08 01:57:45;;;;;;;;;;;;;;;19.96;69.90;97698.73;593100;238;65002;-71
2022/10/08 02:00:13;;;;;;;;;;;;;;;19.96;70.64;97700.59;593101;239;67674;-71
2022/10/08 02:02:42;;;;;;;;;;;;;;;19.96;70.26;97705.94;593119;237;64987;-71
2022/10/08 02:05:10;;;;;;;;;;;;;;;19.95;69.50;97704.33;593136;239;65825;-71
2022/10/08 02:07:41;;;;;;;;;;;;;;;19.96;70.21;97703.27;593156;239;64776;-70
2022/10/08 02:10:13;;;;;;;;;;;;;;;19.96;70.38;97701.39;593172;239;65423;-72
2022/10/08 02:12:41;;;;;;;;;;;;;;;19.96;69.84;97700.59;593146;239;68018;-73
2022/10/08 02:15:10;;;;;;;;;;;;;;;19.96;70.19;97697.92;593152;239;66935;-73
2022/10/08 02:17:58;;;;;;;;;;;;;;;19.95;70.37;97704.33;593144;239;63005;-72
2022/10/08 02:20:33;;;;;;;;;;;;;;;19.94;69.92;97698.19;593120;239;64619;-72
2022/10/08 02:23:19;;;;;;;;;;;;;;;19.94;69.32;97697.36;593152;239;66779;-72
2022/10/08 02:25:48;;;;;;;;;;;;;;;19.94;69.59;97702.70;593113;239;65066;-72
2022/10/08 02:28:17;;;;;;;;;;;;;;;19.93;69.66;97701.89;592950;239;65085;-72
2022/10/08 02:30:52;;;;;;;;;;;;;;;19.93;69.75;97701.89;592998;239;64997;-72
2022/10/08 02:33:24;;;;;;;;;;;;;;;19.93;69.88;97711.77;593090;239;62755;-71
2022/10/08 02:35:53;;;;;;;;;;;;;;;19.93;70.49;97704.56;592954;237;67119;-72
2022/10/08 02:38:22;;;;;;;;;;;;;;;19.92;69.72;97702.96;593152;239;66865;-72
2022/10/08 02:40:51;;;;;;;;;;;;;;;19.93;70.52;97695.76;593105;237;65129;-71
2022/10/08 02:43:20;;;;;;;;;;;;;;;19.93;70.52;97698.42;593183;239;67029;-71
2022/10/08 02:45:49;;;;;;;;;;;;;;;19.92;69.95;97694.95;592910;239;64802;-71
2022/10/08 02:48:19;;;;;;;;;;;;;;;19.92;69.96;97694.16;593030;239;62837;-71
2022/10/08 02:50:48;;;;;;;;;;;;;;;19.92;69.99;97699.48;592996;239;67997;-70
2022/10/08 02:53:17;;;;;;;;;;;;;;;19.92;70.00;97705.63;593134;239;66993;-71
2022/10/08 02:55:46;;;;;;;;;;;;;;;19.92;70.38;97696.83;593143;239;66050;-72
2022/10/08 02:58:13;;;;;;;;;;;;;;;19.91;69.82;97695.98;592994;239;67053;-72
2022/10/08 03:00:42;;;;;;;;;;;;;;;19.91;68.87;97692.52;593135;239;64792;-72
2022/10/08 03:03:14;;;;;;;;;;;;;;;19.92;69.81;97691.48;593123;239;64875;-72
2022/10/08 03:05:43;;;;;;;;;;;;;;;19.92;70.70;97694.95;592905;239;64881;-72
2022/10/08 03:08:12;;;;;;;;;;;;;;;19.91;70.47;97693.33;593167;239;64653;-72
2022/10/08 03:10:40;;;;;;;;;;;;;;;19.91;70.32;97693.33;593130;237;65539;-72
2022/10/08 03:13:09;;;;;;;;;;;;;;;19.91;69.78;97692.52;593139;239;68086;-72
2022/10/08 03:15:36;;;;;;;;;;;;;;;19.89;69.67;97687.45;593116;239;65112;-72
2022/10/08 03:18:05;;;;;;;;;;;;;;;19.90;70.70;97681.05;593113;239;64412;-72
2022/10/08 03:20:33;;;;;;;;;;;;;;;19.90;69.89;97691.72;593138;239;67038;-72
2022/10/08 03:23:01;;;;;;;;;;;;;;;19.90;69.71;97685.59;593156;239;66998;-72
2022/10/08 03:25:29;;;;;;;;;;;;;;;19.90;70.59;97685.59;593145;239;62641;-73
2022/10/08 03:27:56;;;;;;;;;;;;;;;19.90;70.30;97680.25;593137;239;64906;-73
2022/10/08 03:30:23;;;;;;;;;;;;;;;19.90;70.53;97677.58;593117;239;66780;-72
2022/10/08 03:32:51;;;;;;;;;;;;;;;19.90;70.37;97677.58;593167;239;62856;-72
2022/10/08 03:35:19;;;;;;;;;;;;;;;19.90;69.70;97680.25;593140;239;66812;-71
2022/10/08 03:37:46;;;;;;;;;;;;;;;19.90;69.99;97680.25;593141;239;66872;-72
2022/10/08 03:40:13;;;;;;;;;;;;;;;19.90;69.99;97686.39;593102;239;66039;-72
2022/10/08 03:42:41;;;;;;;;;;;;;;;19.89;70.00;97678.65;595864;235;65165;-72
2022/10/08 03:45:08;;;;;;;;;;;;;;;19.89;69.95;97679.45;596247;238;65745;-72
2022/10/08 03:47:36;;;;;;;;;;;;;;;19.88;69.92;97683.16;596294;238;62825;-72
2022/10/08 03:50:04;;;;;;;;;;;;;;;19.89;70.54;97683.98;596196;238;64891;-72
2022/10/08 03:52:31;;;;;;;;;;;;;;;19.88;69.98;97682.35;596247;238;64833;-72
2022/10/08 03:54:59;;;;;;;;;;;;;;;19.88;70.02;97683.16;596248;238;62981;-72
2022/10/08 03:57:26;;;;;;;;;;;;;;;19.88;70.56;97679.69;596264;238;64982;-72
2022/10/08 03:59:53;;;;;;;;;;;;;;;19.87;70.43;97676.22;596276;238;67078;-72
2022/10/08 04:02:21;;;;;;;;;;;;;;;19.88;70.40;97677.02;596207;237;64844;-72
2022/10/08 04:04:49;;;;;;;;;;;;;;;19.87;69.63;97673.55;596263;238;67210;-72
2022/10/08 04:07:16;;;;;;;;;;;;;;;19.87;70.38;97678.88;596286;238;64893;-72
2022/10/08 04:09:43;;;;;;;;;;;;;;;19.87;70.47;97670.88;596264;238;62925;-72
2022/10/08 04:12:11;;;;;;;;;;;;;;;19.87;70.11;97673.55;596319;238;64913;-72
2022/10/08 04:14:38;;;;;;;;;;;;;;;19.86;69.67;97671.11;596276;238;66906;-72
2022/10/08 04:17:06;;;;;;;;;;;;;;;19.87;70.31;97667.41;596256;238;64836;-72
2022/10/08 04:19:34;;;;;;;;;;;;;;;19.87;70.71;97672.75;596250;238;67083;-72
2022/10/08 04:22:02;;;;;;;;;;;;;;;19.86;70.31;97665.78;596288;238;64914;-72
2022/10/08 04:24:29;;;;;;;;;;;;;;;19.87;70.35;97672.75;596262;238;65989;-72
2022/10/08 04:26:57;;;;;;;;;;;;;;;19.86;70.43;97669.28;596314;235;67094;-72
2022/10/08 04:29:25;;;;;;;;;;;;;;;19.87;71.04;97683.41;596241;238;67186;-72
2022/10/08 04:31:52;;;;;;;;;;;;;;;19.86;69.66;97684.45;596256;238;65225;-72
2022/10/08 04:34:20;;;;;;;;;;;;;;;19.86;70.06;97679.11;596277;235;67221;-72
2022/10/08 04:36:47;;;;;;;;;;;;;;;19.86;70.87;97676.45;596274;238;66862;-72
2022/10/08 04:39:17;;;;;;;;;;;;;;;19.86;70.83;97668.45;596365;238;45154;-72
2022/10/08 04:41:44;;;;;;;;;;;;;;;19.85;70.54;97666.84;594698;238;64905;-72
2022/10/08 04:44:11;;;;;;;;;;;;;;;19.85;70.08;97672.18;593142;239;64826;-72
2022/10/08 04:46:39;;;;;;;;;;;;;;;19.84;70.90;97679.38;593174;239;63643;-72
2022/10/08 04:49:06;;;;;;;;;;;;;;;19.84;70.69;97668.71;593159;239;66770;-72
2022/10/08 04:51:34;;;;;;;;;;;;;;;19.83;69.85;97672.41;593211;239;64858;-72
2022/10/08 04:54:01;;;;;;;;;;;;;;;19.84;70.80;97682.05;593124;239;62802;-73
2022/10/08 04:56:30;;;;;;;;;;;;;;;19.84;70.23;97670.58;593143;239;65057;-72
2022/10/08 04:58:59;;;;;;;;;;;;;;;19.84;69.74;97670.58;593146;239;67030;-72
2022/10/08 05:01:27;;;;;;;;;;;;;;;19.83;70.74;97677.75;593141;239;64578;-72
2022/10/08 05:03:55;;;;;;;;;;;;;;;19.82;70.53;97673.48;593175;239;68017;-72
2022/10/08 05:06:24;;;;;;;;;;;;;;;19.82;69.68;97678.81;593148;239;67872;-72
2022/10/08 05:08:52;;;;;;;;;;;;;;;19.82;70.28;97676.14;593167;239;62850;-72
2022/10/08 05:11:21;;;;;;;;;;;;;;;19.82;70.32;97675.34;593168;239;66938;-72
2022/10/08 05:13:52;;;;;;;;;;;;;;;19.82;69.85;97676.14;593173;239;64647;-72
2022/10/08 05:16:20;;;;;;;;;;;;;;;19.82;71.06;97678.02;593221;239;62853;-72
2022/10/08 05:18:50;;;;;;;;;;;;;;;19.82;70.10;97680.68;593184;239;64620;-72
2022/10/08 05:21:20;;;;;;;;;;;;;;;19.82;69.95;97686.02;593174;239;64868;-72
2022/10/08 05:23:47;;;;;;;;;;;;;;;19.82;70.61;97688.68;593130;237;65076;-72
2022/10/08 05:26:15;;;;;;;;;;;;;;;19.82;70.27;97683.34;593195;239;66735;-72
2022/10/08 05:28:45;;;;;;;;;;;;;;;19.82;70.61;97694.02;593181;239;66790;-73
2022/10/08 05:31:13;;;;;;;;;;;;;;;19.82;70.84;97686.81;593204;239;63022;-72
2022/10/08 05:33:42;;;;;;;;;;;;;;;19.81;70.68;97687.08;593153;239;64404;-72
2022/10/08 05:36:19;;;;;;;;;;;;;;;19.81;70.47;97687.08;593137;239;66815;-73
2022/10/08 05:38:48;;;;;;;;;;;;;;;19.80;70.50;97680.91;592949;239;66511;-72
2022/10/08 05:41:17;;;;;;;;;;;;;;;19.80;71.36;97678.24;594058;238;67048;-72
2022/10/08 05:43:45;;;;;;;;;;;;;;;19.80;70.02;97677.45;595926;238;65100;-72
2022/10/08 05:46:13;;;;;;;;;;;;;;;19.81;71.06;97681.74;596316;235;62802;-72
2022/10/08 05:48:41;;;;;;;;;;;;;;;19.80;70.47;97680.11;596190;238;67085;-72
2022/10/08 05:51:10;;;;;;;;;;;;;;;19.80;70.52;97685.44;596251;238;67850;-72
2022/10/08 05:53:39;;;;;;;;;;;;;;;19.80;70.83;97685.44;596077;238;64044;-72
2022/10/08 05:56:07;;;;;;;;;;;;;;;19.79;70.95;97681.17;596262;238;64922;-72
2022/10/08 05:58:35;;;;;;;;;;;;;;;19.80;69.95;97677.45;596283;238;67844;-72
2022/10/08 06:01:05;;;;;;;;;;;;;;;19.80;70.65;97669.44;596225;238;65129;-72
2022/10/08 06:03:32;;;;;;;;;;;;;;;19.78;70.61;97669.70;595995;238;66982;-72
2022/10/08 06:06:04;;;;;;;;;;;;;;;19.78;71.04;97675.05;596136;238;67793;-72
2022/10/08 06:08:32;;;;;;;;;;;;;;;19.79;70.69;97665.17;596127;238;63969;-68
2022/10/08 06:11:00;;;;;;;;;;;;;;;19.78;71.43;97667.04;596286;238;64808;-73
2022/10/08 06:13:27;;;;;;;;;;;;;;;19.77;65.52;97667.27;596238;238;67194;-73
2022/10/08 06:15:56;;;;;;;;;;;;;;;19.77;66.96;97665.41;596166;238;64673;-74
2022/10/08 06:18:28;;;;;;;;;;;;;;;19.79;69.26;97670.51;596009;237;48503;-73
2022/10/08 06:20:55;;;;;;;;;;;;;;;19.77;69.83;97667.27;596222;238;66761;-73
2022/10/08 06:23:25;;;;;;;;;;;;;;;19.78;69.65;97671.55;596249;235;62736;-73
2022/10/08 06:25:52;;;;;;;;;;;;;;;19.78;70.41;97671.55;596050;235;64616;-72
2022/10/08 06:28:20;;;;;;;;;;;;;;;19.78;71.16;97671.55;596265;238;66755;-73
2022/10/08 06:30:47;;;;;;;;;;;;;;;19.78;71.50;97669.70;596262;238;66007;-73
2022/10/08 06:33:15;;;;;;;;;;;;;;;19.77;71.35;97662.73;596215;238;64521;-73
2022/10/08 06:35:43;;;;;;;;;;;;;;;19.78;71.39;97671.55;596246;238;66654;-73
2022/10/08 06:38:11;;;;;;;;;;;;;;;19.77;70.52;97662.73;596321;238;62776;-73
2022/10/08 06:40:39;;;;;;;;;;;;;;;19.77;70.61;97665.41;596102;238;66937;-73
2022/10/08 06:43:08;;;;;;;;;;;;;;;19.77;70.20;97662.73;593156;239;65505;-74
2022/10/08 06:45:39;;;;;;;;;;;;;;;19.79;70.43;97665.97;593073;239;63779;-73
2022/10/08 06:48:07;;;;;;;;;;;;;;;19.80;69.74;97664.11;593154;239;66780;-74
2022/10/08 06:50:35;;;;;;;;;;;;;;;19.80;70.02;97659.58;593197;239;67401;-74
2022/10/08 06:53:03;;;;;;;;;;;;;;;19.80;69.49;97664.11;593169;239;64778;-74
2022/10/08 06:55:34;;;;;;;;;;;;;;;19.80;70.11;97658.77;593146;237;64587;-73
2022/10/08 06:58:02;;;;;;;;;;;;;;;19.80;70.32;97656.91;593115;239;67133;-74
2022/10/08 07:00:30;;;;;;;;;;;;;;;19.80;69.67;97656.11;593131;239;64951;-74
2022/10/08 07:02:58;;;;;;;;;;;;;;;19.81;70.32;97660.41;593153;239;64597;-74
2022/10/08 07:05:26;;;;;;;;;;;;;;;19.80;70.19;97662.24;593187;239;64562;-74
2022/10/08 07:07:53;;;;;;;;;;;;;;;19.80;70.77;97656.91;593120;239;63680;-74
2022/10/08 07:10:21;;;;;;;;;;;;;;;19.81;69.66;97660.41;593174;239;66876;-74
2022/10/08 07:12:48;;;;;;;;;;;;;;;19.80;69.76;97659.58;593134;239;67572;-74
2022/10/08 07:15:16;;;;;;;;;;;;;;;19.81;70.50;97657.73;593189;239;65029;-74
2022/10/08 07:17:43;;;;;;;;;;;;;;;19.81;70.06;97663.88;593204;239;67474;-72
2022/10/08 07:20:11;;;;;;;;;;;;;;;19.81;70.59;97655.08;593131;239;66740;-72
2022/10/08 07:22:38;;;;;;;;;;;;;;;19.81;70.51;97661.20;593092;239;65104;-73
2022/10/08 07:25:06;;;;;;;;;;;;;;;19.81;70.38;97657.73;593154;239;64815;-73
2022/10/08 07:27:34;;;;;;;;;;;;;;;19.82;70.92;97662.01;593151;239;64666;-73
2022/10/08 07:30:01;;;;;;;;;;;;;;;19.82;70.03;97659.34;593204;239;65084;-74
2022/10/08 07:32:29;;;;;;;;;;;;;;;19.82;71.31;97657.48;593152;239;66782;-74
2022/10/08 07:34:56;;;;;;;;;;;;;;;19.81;69.88;97650.54;593139;239;67549;-74
2022/10/08 07:37:24;;;;;;;;;;;;;;;19.81;71.00;97647.88;593162;239;64900;-74
2022/10/08 07:39:51;;;;;;;;;;;;;;;19.82;71.31;97641.47;593151;239;64558;-74
2022/10/08 07:42:19;;;;;;;;;;;;;;;19.81;70.94;97625.73;595492;238;64334;-73
2022/10/08 07:44:46;;;;;;;;;;;;;;;19.81;70.24;97623.87;596285;238;66072;-73
2022/10/08 07:47:14;;;;;;;;;;;;;;;19.82;70.86;97630.80;596272;238;66756;-73
2022/10/08 07:49:41;;;;;;;;;;;;;;;19.81;70.75;97629.20;596288;238;66848;-74
2022/10/08 07:52:09;;;;;;;;;;;;;;;19.82;70.58;97624.67;596284;238;64892;-73
2022/10/08 07:54:37;;;;;;;;;;;;;;;19.82;71.08;97622.00;596343;238;64636;-74
2022/10/08 07:57:04;;;;;;;;;;;;;;;19.82;70.59;97620.14;596280;238;64626;-74
2022/10/08 07:59:32;;;;;;;;;;;;;;;19.82;70.38;97622.00;596304;238;64904;-74
2022/10/08 08:02:00;;;;;;;;;;;;;;;19.82;70.46;97617.47;596233;238;66823;-71
2022/10/08 08:04:27;;;;;;;;;;;;;;;19.82;70.53;97620.14;596275;238;66625;-71
2022/10/08 08:06:55;;;;;;;;;;;;;;;19.82;71.18;97620.14;596336;238;64865;-71
2022/10/08 08:09:23;;;;;;;;;;;;;;;19.83;71.19;97610.27;596274;238;66769;-71
2022/10/08 08:11:51;;;;;;;;;;;;;;;19.83;71.44;97615.59;596279;238;64859;-71
2022/10/08 08:14:19;;;;;;;;;;;;;;;19.82;71.35;97611.33;596288;238;62858;-71
2022/10/08 08:16:46;;;;;;;;;;;;;;;19.81;71.48;97605.20;596270;238;66580;-72
2022/10/08 08:19:14;;;;;;;;;;;;;;;19.82;71.07;97612.13;596337;238;67572;-71
2022/10/08 08:21:41;;;;;;;;;;;;;;;19.82;71.07;97603.33;596280;238;62775;-71
2022/10/08 08:24:14;;;;;;;;;;;;;;;19.83;71.14;97604.93;596285;238;64575;-71
2022/10/08 08:26:42;;;;;;;;;;;;;;;19.82;71.16;97606.80;596306;238;66638;-71
2022/10/08 08:29:14;;;;;;;;;;;;;;;19.82;70.72;97611.33;596277;238;62916;-72
2022/10/08 08:31:43;;;;;;;;;;;;;;;19.82;71.09;97606.00;596280;235;66698;-71
2022/10/08 08:34:12;;;;;;;;;;;;;;;19.82;70.87;97604.13;596341;238;66768;-71
2022/10/08 08:36:41;;;;;;;;;;;;;;;19.82;70.90;97595.33;591089;238;62776;-71
2022/10/08 08:39:10;;;;;;;;;;;;;;;19.83;71.42;97604.93;596276;238;64905;-71
2022/10/08 08:41:46;;;;;;;;;;;;;;;19.82;71.31;97603.33;596157;235;65449;-71
2022/10/08 08:44:14;;;;;;;;;;;;;;;19.82;71.13;97601.47;596275;238;62945;-71
2022/10/08 08:46:43;;;;;;;;;;;;;;;19.82;71.35;97598.00;596223;238;64581;-71
2022/10/08 08:49:13;;;;;;;;;;;;;;;19.81;71.02;97591.86;596324;235;65535;-71
2022/10/08 08:51:40;;;;;;;;;;;;;;;19.81;71.84;97591.06;596063;238;62857;-71
2022/10/08 08:54:08;;;;;;;;;;;;;;;19.82;70.93;97598.00;596266;238;65656;-71
2022/10/08 08:56:35;;;;;;;;;;;;;;;19.81;70.80;97591.06;596262;238;65542;-72
2022/10/08 08:59:07;;;;;;;;;;;;;;;19.82;71.12;97590.80;596153;238;63756;-71
2022/10/08 09:01:45;;;;;;;;;;;;;;;19.82;71.90;97580.13;594647;238;66808;-71
2022/10/08 09:04:21;;;;;;;;;;;;;;;19.81;71.05;97585.73;596292;238;67583;-72
2022/10/08 09:06:49;;;;;;;;;;;;;;;19.82;71.58;97582.00;595734;238;64745;-72
2022/10/08 09:09:31;;;;;;;;;;;;;;;19.81;71.08;97591.86;595989;238;65475;-72
2022/10/08 09:11:59;;;;;;;;;;;;;;;19.81;71.66;97581.19;596128;238;64376;-72
2022/10/08 09:14:31;;;;;;;;;;;;;;;19.81;71.22;97577.73;596285;238;65102;-72
2022/10/08 09:17:00;;;;;;;;;;;;;;;19.80;70.90;97574.23;596259;235;66801;-72
2022/10/08 09:19:28;;;;;;;;;;;;;;;19.81;71.59;97575.06;596285;237;66262;-72
2022/10/08 09:21:55;;;;;;;;;;;;;;;19.81;71.69;97567.06;596298;238;63083;-72
2022/10/08 09:24:23;;;;;;;;;;;;;;;19.80;70.76;97565.42;596307;238;66535;-72
2022/10/08 09:26:54;;;;;;;;;;;;;;;19.81;71.32;97570.53;596281;238;66785;-71
2022/10/08 09:29:33;;;;;;;;;;;;;;;19.81;71.53;97565.19;596326;237;64955;-72
2022/10/08 09:32:00;;;;;;;;;;;;;;;19.80;71.32;97552.89;596370;238;64060;-72
2022/10/08 09:34:28;;;;;;;;;;;;;;;19.80;71.76;97558.23;596302;238;66454;-72
2022/10/08 09:37:03;;;;;;;;;;;;;;;19.81;71.09;97551.86;596296;238;66151;-72
2022/10/08 09:39:31;;;;;;;;;;;;;;;19.80;71.22;97544.09;596300;237;66519;-72
2022/10/08 09:42:01;;;;;;;;;;;;;;;19.80;71.69;97547.56;594347;238;66841;-72
2022/10/08 09:44:30;;;;;;;;;;;;;;;19.80;71.32;97542.22;592832;239;62850;-72
2022/10/08 09:47:08;;;;;;;;;;;;;;;19.79;71.16;97535.29;592894;239;64361;-72
2022/10/08 09:49:39;;;;;;;;;;;;;;;19.81;71.52;97543.05;593140;239;67672;-72
2022/10/08 09:52:25;;;;;;;;;;;;;;;19.79;71.33;97543.30;593147;239;64969;-72
2022/10/08 09:54:54;;;;;;;;;;;;;;;19.80;71.22;97533.42;593157;239;67169;-72
2022/10/08 09:57:22;;;;;;;;;;;;;;;19.79;71.21;97534.49;593152;239;64617;-72
2022/10/08 09:59:51;;;;;;;;;;;;;;;19.79;71.15;97540.63;593153;239;62815;-72
2022/10/08 10:02:26;;;;;;;;;;;;;;;19.79;71.77;97534.49;593163;237;66831;-72
2022/10/08 10:04:54;;;;;;;;;;;;;;;19.79;71.38;97524.63;593125;239;64552;-72
2022/10/08 10:07:23;;;;;;;;;;;;;;;19.78;71.03;97523.02;593160;239;62850;-72
2022/10/08 10:09:57;;;;;;;;;;;;;;;19.79;71.54;97523.83;593174;239;67678;-72
2022/10/08 10:12:35;;;;;;;;;;;;;;;19.79;71.42;97521.95;593148;239;67695;-72
2022/10/08 10:15:10;;;;;;;;;;;;;;;19.79;71.26;97523.83;593169;239;62843;-72
2022/10/08 10:17:45;;;;;;;;;;;;;;;19.80;71.65;97514.75;593166;239;64372;-72
2022/10/08 10:20:14;;;;;;;;;;;;;;;19.79;71.64;97516.63;593026;239;66804;-72
2022/10/08 10:23:00;;;;;;;;;;;;;;;19.78;71.08;97516.86;592975;239;64822;-72
2022/10/08 10:25:44;;;;;;;;;;;;;;;19.79;71.90;97507.82;593156;239;64638;-72
2022/10/08 10:28:13;;;;;;;;;;;;;;;19.78;71.26;97501.69;593158;239;64707;-73
2022/10/08 10:30:47;;;;;;;;;;;;;;;19.77;71.74;97492.06;591321;239;62842;-73
2022/10/08 10:33:16;;;;;;;;;;;;;;;19.77;71.20;97486.72;592995;239;69366;-73
2022/10/08 10:35:48;;;;;;;;;;;;;;;19.77;71.54;97489.39;593156;239;64627;-73
2022/10/08 10:38:17;;;;;;;;;;;;;;;19.78;71.51;97479.52;593051;239;66101;-73
2022/10/08 10:40:46;;;;;;;;;;;;;;;19.78;72.06;97477.69;592689;237;67056;-73
2022/10/08 10:43:30;;;;;;;;;;;;;;;19.78;71.26;97463.52;593122;238;68159;-73
2022/10/08 10:45:59;;;;;;;;;;;;;;;19.77;71.01;97465.39;593131;239;65358;-72
2022/10/08 10:48:27;;;;;;;;;;;;;;;19.77;71.30;97460.05;593159;239;64761;-72
2022/10/08 10:51:02;;;;;;;;;;;;;;;19.77;71.54;97462.72;593173;239;67278;-73
2022/10/08 10:53:31;;;;;;;;;;;;;;;19.77;71.82;97462.72;592940;238;62848;-72
2022/10/08 10:56:00;;;;;;;;;;;;;;;19.77;71.46;97456.59;593083;239;67133;-72
2022/10/08 10:58:44;;;;;;;;;;;;;;;19.78;71.17;97450.19;592970;239;66802;-72
2022/10/08 11:01:30;;;;;;;;;;;;;;;19.77;71.87;97448.59;593122;237;66116;-72
2022/10/08 11:04:00;;;;;;;;;;;;;;;19.77;72.01;97446.72;593104;239;64687;-72
2022/10/08 11:06:45;;;;;;;;;;;;;;;19.76;71.04;97431.79;593189;239;65699;-72
2022/10/08 11:09:27;;;;;;;;;;;;;;;19.77;71.49;97433.39;593155;239;65278;-72
2022/10/08 11:11:56;;;;;;;;;;;;;;;19.77;71.59;97435.25;593126;239;68297;-72
2022/10/08 11:14:43;;;;;;;;;;;;;;;19.76;71.67;97431.79;593050;239;66846;-73
2022/10/08 11:17:28;;;;;;;;;;;;;;;19.76;72.22;97426.45;593130;239;65177;-72
2022/10/08 11:19:58;;;;;;;;;;;;;;;19.76;71.35;97423.79;593076;239;67305;-73
2022/10/08 11:22:31;;;;;;;;;;;;;;;19.77;70.93;97419.25;593174;237;49601;-72
2022/10/08 11:25:15;;;;;;;;;;;;;;;19.77;71.62;97420.05;592978;239;62928;-73
2022/10/08 11:27:45;;;;;;;;;;;;;;;19.76;71.50;97412.33;593085;239;67060;-73
2022/10/08 11:30:14;;;;;;;;;;;;;;;19.76;71.40;97406.99;593130;237;66865;-73
2022/10/08 11:32:43;;;;;;;;;;;;;;;19.76;72.12;97405.12;593125;239;65513;-73
2022/10/08 11:35:21;;;;;;;;;;;;;;;19.76;71.88;97406.99;593113;237;68360;-73
2022/10/08 11:38:06;;;;;;;;;;;;;;;19.76;71.51;97409.66;593142;239;66894;-72
2022/10/08 11:40:43;;;;;;;;;;;;;;;19.76;71.70;97398.98;593070;238;63318;-72
2022/10/08 11:43:12;;;;;;;;;;;;;;;19.76;72.26;97402.45;596153;238;68217;-72
2022/10/08 11:45:42;;;;;;;;;;;;;;;19.76;71.80;97390.98;596240;238;66871;-73
2022/10/08 11:48:27;;;;;;;;;;;;;;;19.75;71.83;97395.49;596260;238;63012;-72
2022/10/08 11:50:56;;;;;;;;;;;;;;;19.76;71.63;97388.32;596222;238;67081;-74
2022/10/08 11:53:24;;;;;;;;;;;;;;;19.76;71.47;97385.66;595464;238;67941;-74
2022/10/08 11:55:53;;;;;;;;;;;;;;;19.76;71.74;97382.98;596219;238;62774;-74
2022/10/08 11:58:22;;;;;;;;;;;;;;;19.76;72.15;97380.32;596297;238;67041;-73
2022/10/08 12:00:52;;;;;;;;;;;;;;;19.76;72.03;97374.98;596177;236;65094;-73
2022/10/08 12:03:21;;;;;;;;;;;;;;;19.76;71.39;97369.66;596182;238;65111;-73
2022/10/08 12:05:51;;;;;;;;;;;;;;;19.76;71.60;97366.98;596054;238;67989;-73
2022/10/08 12:08:36;;;;;;;;;;;;;;;19.76;71.82;97374.98;596218;238;64929;-73
2022/10/08 12:11:05;;;;;;;;;;;;;;;19.75;71.42;97366.16;596281;238;62970;-73
2022/10/08 12:13:33;;;;;;;;;;;;;;;19.76;71.87;97358.98;595430;238;64831;-73
2022/10/08 12:16:03;;;;;;;;;;;;;;;19.75;72.00;97363.49;596224;238;66712;-73
2022/10/08 12:18:31;;;;;;;;;;;;;;;19.75;72.18;97358.16;596250;238;62920;-73
2022/10/08 12:21:21;;;;;;;;;;;;;;;19.76;71.69;97354.45;596208;238;64668;-74
2022/10/08 12:23:49;;;;;;;;;;;;;;;19.76;71.75;97350.98;596238;238;65822;-74
2022/10/08 12:26:16;;;;;;;;;;;;;;;19.75;71.85;97352.83;596256;238;62861;-72
2022/10/08 12:28:46;;;;;;;;;;;;;;;19.75;71.50;97350.16;596256;238;67142;-72
2022/10/08 12:31:21;;;;;;;;;;;;;;;19.74;71.57;97341.36;596252;238;67098;-72
2022/10/08 12:33:56;;;;;;;;;;;;;;;19.75;71.35;97339.49;596267;238;65142;-72
2022/10/08 12:36:41;;;;;;;;;;;;;;;19.75;71.81;97342.16;596188;238;68102;-72
2022/10/08 12:39:20;;;;;;;;;;;;;;;19.75;72.34;97336.83;596229;235;67880;-71
2022/10/08 12:41:55;;;;;;;;;;;;;;;19.74;71.87;97328.03;594339;237;65476;-71
2022/10/08 12:44:27;;;;;;;;;;;;;;;19.73;72.11;97329.09;592106;239;64975;-72
2022/10/08 12:47:12;;;;;;;;;;;;;;;19.74;71.92;97324.56;593200;239;66917;-72
2022/10/08 12:49:46;;;;;;;;;;;;;;;19.73;71.76;97326.43;593084;239;64006;-71
2022/10/08 12:52:14;;;;;;;;;;;;;;;19.74;72.22;97324.56;593156;239;64991;-71
2022/10/08 12:54:52;;;;;;;;;;;;;;;19.74;71.75;97324.56;593159;239;67056;-71
2022/10/08 12:57:33;;;;;;;;;;;;;;;19.73;72.32;97321.09;593137;239;65110;-72
2022/10/08 13:00:08;;;;;;;;;;;;;;;19.72;71.90;97311.50;593133;239;67112;-72
2022/10/08 13:02:40;;;;;;;;;;;;;;;19.73;71.05;97313.09;593013;239;66734;-72
2022/10/08 13:05:27;;;;;;;;;;;;;;;19.74;72.04;97311.23;593182;239;63147;-72
2022/10/08 13:07:55;;;;;;;;;;;;;;;19.73;71.94;97302.43;593187;237;67155;-73